Time;durP1;ratioP1;P1;durP2;ratioP2;P2;SDS_P1;SDS_P2;PMS_P1;PMS_P2;Temp;Humidity;BMP_temperature;BMP_pressure;BME280_temperature;BME280_humidity;BME280_pressure;Samples;Min_cycle;Max_cycle;Signal;HPM_P1;HPM_P2
2022/11/06 00:02:05;;;;;;;;;36.00;33.40;;;;;14.25;74.06;99150.13;5049859;28;8875;-80
2022/11/06 00:04:33;;;;;;;;;42.20;36.00;;;;;14.37;72.79;99152.50;5050071;28;8968;-78
2022/11/06 00:07:01;;;;;;;;;35.80;34.00;;;;;14.30;73.21;99148.28;5033847;28;8877;-81
2022/11/06 00:09:31;;;;;;;;;36.80;33.80;;;;;14.55;72.51;99138.06;5049695;28;8849;-80
2022/11/06 00:11:59;;;;;;;;;37.60;34.20;;;;;13.71;75.20;99137.31;5050155;28;8869;-80
2022/11/06 00:14:28;;;;;;;;;29.00;26.20;;;;;13.90;74.85;99137.78;5046399;28;8884;-79
2022/11/06 00:16:57;;;;;;;;;37.60;33.80;;;;;13.90;74.57;99141.28;4981162;28;8869;-78
2022/11/06 00:19:25;;;;;;;;;41.00;35.20;;;;;14.17;73.60;99137.19;5031108;28;8869;-79
2022/11/06 00:21:54;;;;;;;;;36.80;34.80;;;;;14.15;73.56;99132.88;5029341;28;8841;-81
2022/11/06 00:24:22;;;;;;;;;37.00;33.80;;;;;13.92;74.41;99134.22;5030788;28;8860;-78
2022/11/06 00:26:52;;;;;;;;;39.80;33.80;;;;;13.91;74.25;99139.50;5050822;28;9601;-80
2022/11/06 00:29:22;;;;;;;;;35.40;29.80;;;;;14.18;73.31;99133.69;5051284;28;8841;-78
2022/11/06 00:31:50;;;;;;;;;36.00;32.80;;;;;13.56;75.42;99134.06;5057145;28;8964;-78
2022/11/06 00:34:19;;;;;;;;;38.80;33.80;;;;;13.42;76.80;99133.47;5013689;28;9428;-79
2022/11/06 00:36:48;;;;;;;;;46.40;35.60;;;;;13.50;76.91;99128.13;5013055;28;8864;-78
2022/11/06 00:39:16;;;;;;;;;45.75;36.00;;;;;13.75;75.71;99129.34;5013324;28;8863;-79
2022/11/06 00:41:45;;;;;;;;;38.00;32.40;;;;;13.61;75.80;99127.00;5029633;28;8878;-78
2022/11/06 00:44:15;;;;;;;;;31.00;26.60;;;;;14.00;75.14;99127.06;5029945;28;8851;-80
2022/11/06 00:46:44;;;;;;;;;40.20;33.00;;;;;14.01;74.43;99136.66;5029523;28;8847;-79
2022/11/06 00:49:13;;;;;;;;;39.40;32.20;;;;;13.74;75.74;99134.59;5034107;28;8969;-79
2022/11/06 00:51:41;;;;;;;;;44.20;36.40;;;;;13.82;74.89;99133.56;5049123;28;10043;-77
2022/11/06 00:54:12;;;;;;;;;34.80;30.20;;;;;13.54;76.15;99130.63;5050514;28;8856;-79
2022/11/06 00:56:41;;;;;;;;;38.00;32.60;;;;;13.32;77.87;99137.16;4998177;28;8853;-80
2022/11/06 00:59:13;;;;;;;;;38.20;34.20;;;;;13.05;78.80;99147.19;5049802;28;8837;-81
2022/11/06 01:01:45;;;;;;;;;34.80;34.00;;;;;12.90;80.10;99139.59;5030882;28;8883;-78
2022/11/06 01:04:16;;;;;;;;;42.40;36.60;;;;;12.94;80.59;99134.28;5012136;28;8872;-79
2022/11/06 01:06:47;;;;;;;;;33.40;26.60;;;;;13.26;78.25;99143.34;5031709;28;8883;-81
2022/11/06 01:09:18;;;;;;;;;32.40;30.40;;;;;13.54;77.74;99146.34;5048036;28;8853;-79
2022/11/06 01:11:49;;;;;;;;;35.75;32.75;;;;;13.40;77.66;99146.63;5049135;28;8903;-78
2022/11/06 01:14:39;;;;;;;;;36.80;30.40;;;;;13.80;76.69;99143.22;5018214;28;8877;-79
2022/11/06 01:17:09;;;;;;;;;36.60;33.80;;;;;13.51;77.67;99143.78;5029729;28;8945;-80
2022/11/06 01:19:38;;;;;;;;;42.75;35.00;;;;;13.37;78.16;99148.41;5030796;28;8863;-79
2022/11/06 01:22:06;;;;;;;;;30.00;27.20;;;;;13.77;76.41;99140.66;4998354;28;8871;-76
2022/11/06 01:24:35;;;;;;;;;31.20;28.60;;;;;13.89;76.17;99151.78;5059827;28;8861;-76
2022/11/06 01:27:04;;;;;;;;;34.80;31.60;;;;;14.21;75.61;99152.00;5043357;28;8861;-77
2022/11/06 01:29:52;;;;;;;;;41.40;33.40;;;;;13.74;76.44;99148.59;5048202;28;9662;-79
2022/11/06 01:32:22;;;;;;;;;36.20;30.40;;;;;13.68;76.58;99158.31;5049487;28;8856;-81
2022/11/06 01:34:51;;;;;;;;;35.40;29.60;;;;;13.90;76.00;99159.63;5048042;28;8859;-79
2022/11/06 01:37:20;;;;;;;;;28.20;26.80;;;;;14.16;75.45;99166.94;5026353;28;8855;-81
2022/11/06 01:39:49;;;;;;;;;30.40;27.20;;;;;14.31;74.69;99170.13;4958100;28;8847;-78
2022/11/06 01:42:20;;;;;;;;;34.80;27.60;;;;;13.60;76.67;99166.31;4993413;28;8854;-80
2022/11/06 01:45:33;;;;;;;;;31.80;29.00;;;;;14.04;76.20;99161.94;4987284;28;8858;-80
2022/11/06 01:48:05;;;;;;;;;32.20;28.40;;;;;14.28;74.80;99162.34;4986939;28;8874;-80
2022/11/06 01:50:33;;;;;;;;;26.20;24.80;;;;;14.51;74.62;99170.53;4938808;28;8862;-78
2022/11/06 01:53:02;;;;;;;;;31.00;24.60;;;;;14.59;73.81;99167.78;4951141;28;9072;-79
2022/11/06 01:55:35;;;;;;;;;31.60;24.40;;;;;14.78;73.32;99166.47;4967038;28;8877;-77
2022/11/06 01:58:07;;;;;;;;;33.20;31.20;;;;;14.86;72.31;99158.41;4967119;28;8892;-78
2022/11/06 02:00:36;;;;;;;;;23.00;22.40;;;;;14.43;73.56;99162.84;4954833;28;8882;-80
2022/11/06 02:03:06;;;;;;;;;24.40;20.80;;;;;14.52;73.22;99159.16;4955116;28;10137;-81
2022/11/06 02:05:35;;;;;;;;;25.00;23.20;;;;;14.69;72.90;99155.28;4987557;28;9024;-77
2022/11/06 02:08:05;;;;;;;;;22.80;21.40;;;;;14.84;72.63;99161.94;4982640;28;8948;-79
2022/11/06 02:10:33;;;;;;;;;25.40;24.00;;;;;14.87;72.00;99162.72;5027232;28;8998;-78
2022/11/06 02:13:15;;;;;;;;;24.00;22.20;;;;;15.18;71.64;99159.38;4997363;28;8870;-78
2022/11/06 02:15:50;;;;;;;;;24.60;22.60;;;;;15.25;70.73;99160.06;4998882;28;8878;-78
2022/11/06 02:18:46;;;;;;;;;26.60;24.60;;;;;15.08;70.88;99160.47;5027824;28;8883;-78
2022/11/06 02:21:36;;;;;;;;;24.80;22.40;;;;;15.17;70.80;99158.47;5006736;28;8878;-77
2022/11/06 02:24:32;;;;;;;;;25.40;24.40;;;;;15.21;70.86;99162.75;4998871;28;8855;-79
2022/11/06 02:27:10;;;;;;;;;27.60;26.80;;;;;15.26;70.52;99161.78;5008563;28;8918;-76
2022/11/06 02:29:47;;;;;;;;;28.80;27.80;;;;;15.24;69.97;99167.09;4992926;28;8872;-78
2022/11/06 02:32:21;;;;;;;;;24.80;22.00;;;;;15.09;70.80;99162.22;4992696;28;8864;-77
2022/11/06 02:34:52;;;;;;;;;28.00;23.00;;;;;14.66;71.49;99158.88;5009549;28;8859;-79
2022/11/06 02:37:27;;;;;;;;;37.80;32.00;;;;;13.95;75.37;99172.63;5012397;28;8932;-81
2022/11/06 02:40:01;;;;;;;;;31.40;30.40;;;;;13.91;76.11;99171.81;5040713;28;8865;-79
2022/11/06 02:42:33;;;;;;;;;29.60;25.00;;;;;14.17;75.24;99168.66;4998196;28;8926;-78
2022/11/06 02:45:03;;;;;;;;;31.20;29.20;;;;;14.25;74.69;99173.72;5045229;28;8857;-78
2022/11/06 02:47:34;;;;;;;;;30.00;28.00;;;;;14.33;74.37;99177.06;5047172;28;8856;-79
2022/11/06 02:50:06;;;;;;;;;24.80;24.80;;;;;14.64;73.61;99171.16;5030886;28;8845;-78
2022/11/06 02:52:40;;;;;;;;;31.20;25.60;;;;;14.28;74.26;99178.06;5026805;28;8905;-79
2022/11/06 02:55:11;;;;;;;;;33.60;31.80;;;;;14.03;76.07;99176.81;5011043;28;8847;-77
2022/11/06 02:57:46;;;;;;;;;36.40;33.80;;;;;14.50;74.41;99184.56;5029280;28;8878;-79
2022/11/06 03:00:17;;;;;;;;;23.20;22.00;;;;;14.73;73.54;99191.09;5028267;28;8870;-79
2022/11/06 03:02:49;;;;;;;;;34.20;33.00;;;;;14.42;73.84;99197.88;5026941;28;8863;-79
2022/11/06 03:05:23;;;;;;;;;32.80;31.40;;;;;14.07;75.62;99203.00;5029869;28;8856;-78
2022/11/06 03:07:58;;;;;;;;;33.20;31.40;;;;;14.39;74.66;99195.28;5011602;28;9006;-79
2022/11/06 03:10:38;;;;;;;;;29.00;25.80;;;;;14.19;74.67;99193.09;5041723;28;8845;-77
2022/11/06 03:13:16;;;;;;;;;35.80;32.00;;;;;13.58;78.27;99200.41;5047954;28;8849;-78
2022/11/06 03:15:57;;;;;;;;;41.25;35.50;;;;;13.13;80.18;99202.03;5051065;28;8876;-82
2022/11/06 03:18:33;;;;;;;;;46.50;37.50;;;;;13.19;80.92;99201.94;5052857;28;8860;-80
2022/11/06 03:21:08;;;;;;;;;36.25;33.50;;;;;13.16;80.28;99208.09;5051289;28;8888;-79
2022/11/06 03:23:43;;;;;;;;;42.00;35.80;;;;;12.77;83.11;99207.81;5050412;28;8888;-79
2022/11/06 03:26:18;;;;;;;;;41.50;37.00;;;;;12.84;82.57;99208.59;5050656;28;8849;-79
2022/11/06 03:28:53;;;;;;;;;48.00;37.75;;;;;12.87;82.35;99208.53;5050431;28;8845;-78
2022/11/06 03:31:28;;;;;;;;;38.60;35.40;;;;;13.05;81.40;99208.25;5033882;28;8848;-78
2022/11/06 03:34:02;;;;;;;;;42.20;33.20;;;;;13.06;81.66;99210.00;5039919;28;8852;-79
2022/11/06 03:36:36;;;;;;;;;35.00;31.25;;;;;12.77;82.28;99210.44;5030582;28;8871;-78
2022/11/06 03:39:08;;;;;;;;;45.00;36.75;;;;;12.37;85.86;99210.16;5013867;28;8894;-78
2022/11/06 03:41:43;;;;;;;;;40.60;36.60;;;;;12.49;85.06;99220.44;5015451;28;8867;-80
2022/11/06 03:44:18;;;;;;;;;50.50;39.75;;;;;12.98;83.12;99216.25;5028808;28;8889;-79
2022/11/06 03:46:53;;;;;;;;;46.25;39.00;;;;;12.84;83.10;99216.47;5012351;28;8828;-77
2022/11/06 03:49:28;;;;;;;;;38.75;36.50;;;;;12.93;82.93;99221.56;5012774;28;8852;-80
2022/11/06 03:52:00;;;;;;;;;5.40;2.40;;;;;12.82;83.54;99224.34;5012704;28;8831;-77
2022/11/06 03:54:35;;;;;;;;;49.50;40.00;;;;;12.70;84.55;99236.72;5029643;28;8898;-79
2022/11/06 03:57:09;;;;;;;;;48.20;37.60;;;;;12.45;86.06;99235.28;5012474;28;9578;-79
2022/11/06 03:59:44;;;;;;;;;45.00;38.25;;;;;12.47;85.68;99235.28;5014233;28;8997;-78
2022/11/06 04:02:16;;;;;;;;;33.25;31.75;;;;;12.34;86.46;99234.56;5031857;28;8840;-79
2022/11/06 04:04:51;;;;;;;;;42.50;36.75;;;;;12.72;84.88;99230.59;5010951;28;8879;-78
2022/11/06 04:07:25;;;;;;;;;40.25;34.75;;;;;12.74;84.46;99235.78;5017651;28;8849;-80
2022/11/06 04:15:43;;;;;;;;;40.40;34.60;;;;;12.37;87.05;99236.31;5016168;28;8992;-80
2022/11/06 04:18:13;;;;;;;;;48.75;38.00;;;;;12.57;85.50;99239.53;5031860;28;8858;-80
2022/11/06 04:26:34;;;;;;;;;45.50;37.25;;;;;12.43;86.26;99236.22;5028289;28;8969;-77
2022/11/06 04:26:45;;;;;;;;;53.00;40.00;;;;;12.43;86.78;99241.44;5018767;28;8872;-80
2022/11/06 04:29:26;;;;;;;;;49.50;40.00;;;;;12.21;87.89;99240.84;5008458;28;8843;-77
2022/11/06 04:32:04;;;;;;;;;45.25;38.00;;;;;12.32;87.29;99241.56;4975474;28;8881;-79
2022/11/06 04:34:41;;;;;;;;;49.25;39.00;;;;;12.28;87.28;99252.94;4960964;28;9008;-78
2022/11/06 04:37:17;;;;;;;;;43.50;37.25;;;;;12.25;87.73;99238.19;5007914;28;8888;-78
2022/11/06 04:39:53;;;;;;;;;45.50;38.25;;;;;12.23;87.76;99241.69;4988780;28;8936;-78
2022/11/06 04:42:29;;;;;;;;;42.00;36.00;;;;;12.16;88.27;99251.38;4997279;28;8976;-80
2022/11/06 04:45:03;;;;;;;;;49.40;35.80;;;;;12.11;89.26;99244.47;4992685;28;9620;-77
2022/11/06 04:47:34;;;;;;;;;48.25;38.00;;;;;12.26;88.38;99246.88;4991531;28;9061;-79
2022/11/06 04:50:07;;;;;;;;;43.40;37.00;;;;;12.54;87.98;99243.94;4991494;28;8847;-78
2022/11/06 04:52:38;;;;;;;;;47.20;36.20;;;;;12.63;86.10;99249.03;4991607;28;9012;-77
2022/11/06 04:55:08;;;;;;;;;45.75;39.50;;;;;12.46;87.12;99252.72;5009852;28;8850;-78
2022/11/06 04:57:36;;;;;;;;;45.75;38.00;;;;;12.33;88.41;99259.00;4998993;28;8904;-79
2022/11/06 05:00:06;;;;;;;;;39.40;35.60;;;;;12.71;86.13;99254.16;5018423;28;8840;-80
2022/11/06 05:02:35;;;;;;;;;45.00;37.75;;;;;12.66;86.00;99251.59;5036262;28;8855;-80
2022/11/06 05:05:05;;;;;;;;;49.25;39.75;;;;;12.60;86.82;99259.53;5016013;28;8859;-81
2022/11/06 05:07:33;;;;;;;;;46.60;34.60;;;;;12.64;86.24;99262.06;5028767;28;8905;-79
2022/11/06 05:10:02;;;;;;;;;48.75;38.75;;;;;12.78;85.72;99272.38;5029623;28;8898;-79
2022/11/06 05:12:31;;;;;;;;;41.40;35.40;;;;;12.98;85.04;99271.22;5043816;28;8845;-79
2022/11/06 05:15:00;;;;;;;;;47.00;37.25;;;;;12.95;84.76;99276.47;5049896;28;8883;-78
2022/11/06 05:17:28;;;;;;;;;46.00;40.25;;;;;12.91;84.84;99278.28;5048369;28;8971;-80
2022/11/06 05:20:06;;;;;;;;;44.00;38.00;;;;;12.84;84.89;99277.50;5049714;28;8860;-77
2022/11/06 05:25:20;;;;;;;;;46.00;38.00;;;;;12.77;85.54;99281.09;5048230;28;8860;-81
2022/11/06 05:27:49;;;;;;;;;51.75;38.00;;;;;12.70;86.79;99284.66;5034645;28;8855;-80
2022/11/06 05:30:18;;;;;;;;;44.75;38.50;;;;;12.76;86.57;99286.34;5028445;28;8948;-79
2022/11/06 05:32:46;;;;;;;;;44.25;39.75;;;;;12.68;85.94;99283.81;5032311;28;8870;-79
2022/11/06 05:35:17;;;;;;;;;47.25;39.00;;;;;12.67;86.79;99288.19;4994775;28;8918;-81
2022/11/06 05:37:45;;;;;;;;;47.00;35.75;;;;;12.54;87.30;99301.47;5027899;28;8867;-82
2022/11/06 05:40:14;;;;;;;;;44.25;37.50;;;;;12.58;87.65;99290.94;5028959;28;8901;-79
2022/11/06 05:42:44;;;;;;;;;48.50;38.00;;;;;12.60;87.11;99297.00;5030198;28;8863;-78
2022/11/06 05:45:12;;;;;;;;;40.20;33.00;;;;;12.43;88.01;99310.28;5029278;28;8906;-78
2022/11/06 05:47:41;;;;;;;;;49.00;37.25;;;;;12.56;87.67;99315.38;5030277;28;8917;-79
2022/11/06 05:50:10;;;;;;;;;36.60;31.80;;;;;12.13;89.80;99310.66;5048422;28;8983;-79
2022/11/06 05:52:40;;;;;;;;;50.50;39.00;;;;;12.01;90.85;99319.50;5032295;28;8845;-78
2022/11/06 05:55:09;;;;;;;;;44.00;37.50;;;;;12.17;89.83;99322.78;5053087;28;8865;-78
2022/11/06 05:57:43;;;;;;;;;46.00;39.25;;;;;12.09;90.90;99330.72;5044494;28;8889;-79
2022/11/06 06:00:13;;;;;;;;;45.50;37.50;;;;;12.00;91.38;99329.09;5027246;28;8856;-78
2022/11/06 06:02:43;;;;;;;;;57.25;39.75;;;;;11.96;91.35;99332.59;4978478;28;8856;-78
2022/11/06 06:05:13;;;;;;;;;49.00;39.25;;;;;12.02;90.78;99335.16;5028426;28;8976;-79
2022/11/06 06:07:43;;;;;;;;;48.00;37.50;;;;;12.08;91.36;99342.06;4977910;28;9594;-77
2022/11/06 06:10:12;;;;;;;;;46.25;38.50;;;;;11.99;90.85;99347.38;5026965;28;8859;-78
2022/11/06 06:12:40;;;;;;;;;48.50;39.25;;;;;11.98;91.19;99350.88;5027403;28;8966;-76
2022/11/06 06:15:10;;;;;;;;;45.00;37.50;;;;;12.04;91.43;99358.63;5028146;28;8859;-79
2022/11/06 06:17:38;;;;;;;;;49.75;41.25;;;;;12.16;90.84;99358.53;5041767;28;8867;-78
2022/11/06 06:20:08;;;;;;;;;50.50;41.00;;;;;12.30;89.79;99368.84;5027667;28;8867;-80
2022/11/06 06:22:37;;;;;;;;;39.50;35.25;;;;;12.51;89.17;99362.50;5027786;28;8839;-78
2022/11/06 06:25:08;;;;;;;;;49.75;41.00;;;;;12.24;90.66;99367.16;5027683;28;10009;-77
2022/11/06 06:27:49;;;;;;;;;47.25;34.75;;;;;12.06;91.43;99376.06;5026786;28;8910;-79
2022/11/06 06:30:18;;;;;;;;;50.25;38.50;;;;;12.14;91.40;99381.22;5033952;28;8857;-81
2022/11/06 06:32:47;;;;;;;;;38.75;33.75;;;;;12.20;91.44;99385.50;5046635;28;8967;-79
2022/11/06 06:35:17;;;;;;;;;56.75;44.00;;;;;12.29;90.58;99390.66;5047755;28;9607;-78
2022/11/06 06:37:51;;;;;;;;;48.25;39.75;;;;;12.53;89.29;99388.66;4996702;28;10026;-81
2022/11/06 06:40:22;;;;;;;;;36.25;33.50;;;;;12.67;88.24;99386.75;5046742;28;8883;-79
2022/11/06 06:42:50;;;;;;;;;47.75;39.75;;;;;12.47;89.04;99395.66;5069402;28;8853;-78
2022/11/06 06:45:19;;;;;;;;;49.50;41.75;;;;;12.51;89.65;99400.88;5087721;28;8854;-77
2022/11/06 06:47:47;;;;;;;;;48.75;40.00;;;;;12.53;88.97;99394.75;5053543;28;8866;-78
2022/11/06 06:50:16;;;;;;;;;42.75;34.50;;;;;12.78;87.38;99397.06;5073067;28;8849;-76
2022/11/06 06:52:45;;;;;;;;;45.25;39.75;;;;;12.76;88.09;99402.34;5074553;28;8865;-78
2022/11/06 06:55:13;;;;;;;;;49.75;37.25;;;;;12.64;88.53;99403.34;5074559;28;8826;-80
2022/11/06 06:57:43;;;;;;;;;45.25;36.00;;;;;12.94;87.05;99403.88;5091545;28;8846;-79
2022/11/06 07:00:12;;;;;;;;;57.25;42.50;;;;;12.74;87.25;99408.47;5091007;28;8869;-77
2022/11/06 07:02:41;;;;;;;;;52.25;40.50;;;;;12.71;88.29;99413.75;5059210;28;8834;-78
2022/11/06 07:05:10;;;;;;;;;48.25;40.75;;;;;12.84;87.25;99410.09;5091719;28;8849;-78
2022/11/06 07:07:38;;;;;;;;;52.25;41.00;;;;;13.15;86.14;99409.72;5072822;28;9903;-81
2022/11/06 07:10:08;;;;;;;;;51.75;37.75;;;;;12.98;86.43;99410.78;5073869;28;8850;-78
2022/11/06 07:12:36;;;;;;;;;49.25;41.25;;;;;13.05;86.10;99414.22;5052956;28;8878;-78
2022/11/06 07:15:08;;;;;;;;;54.00;44.25;;;;;13.00;86.17;99414.25;5052935;28;8970;-79
2022/11/06 07:17:37;;;;;;;;;47.00;39.00;;;;;12.79;87.43;99415.38;5020012;28;8846;-78
2022/11/06 07:20:07;;;;;;;;;56.25;43.25;;;;;12.66;87.87;99419.91;5057614;28;8880;-78
2022/11/06 07:22:36;;;;;;;;;50.75;41.75;;;;;12.75;87.64;99418.91;5032502;28;8873;-76
2022/11/06 07:25:06;;;;;;;;;34.75;29.00;;;;;12.66;88.18;99417.28;5025784;28;8852;-79
2022/11/06 07:27:34;;;;;;;;;91.00;83.75;;;;;13.10;86.78;99412.41;5000074;28;8851;-78
2022/11/06 07:30:04;;;;;;;;;59.75;46.50;;;;;13.40;84.98;99411.16;5017110;28;9792;-77
2022/11/06 07:32:34;;;;;;;;;51.50;39.00;;;;;13.03;86.06;99408.97;4983135;28;8867;-78
2022/11/06 07:35:03;;;;;;;;;55.75;44.25;;;;;12.82;87.10;99415.34;5016235;28;9111;-79
2022/11/06 07:37:31;;;;;;;;;54.75;42.00;;;;;12.98;85.95;99415.16;5025083;28;8885;-81
2022/11/06 07:40:00;;;;;;;;;56.50;41.75;;;;;13.11;85.89;99416.75;5021055;28;9714;-79
2022/11/06 07:42:29;;;;;;;;;57.50;42.25;;;;;12.84;86.80;99416.19;4994554;28;8876;-76
2022/11/06 07:45:03;;;;;;;;;67.00;50.75;;;;;13.04;86.65;99415.97;5054826;28;8866;-78
2022/11/06 07:47:32;;;;;;;;;50.75;39.75;;;;;13.43;84.73;99415.47;5051373;28;8862;-77
2022/11/06 07:50:02;;;;;;;;;52.00;41.00;;;;;13.63;83.76;99418.66;5053237;28;9126;-78
2022/11/06 07:52:32;;;;;;;;;53.00;40.50;;;;;13.41;83.74;99419.88;5051709;28;8885;-77
2022/11/06 07:55:01;;;;;;;;;59.25;48.00;;;;;13.63;83.54;99423.06;5015718;28;8861;-79
2022/11/06 07:57:29;;;;;;;;;43.25;37.75;;;;;13.29;84.25;99417.38;5049528;28;8862;-79
2022/11/06 07:59:58;;;;;;;;;53.00;40.50;;;;;13.02;86.01;99424.69;5049108;28;8878;-78
2022/11/06 08:02:27;;;;;;;;;55.50;41.75;;;;;12.86;86.77;99424.03;4999869;28;8878;-78
2022/11/06 08:04:55;;;;;;;;;62.25;45.75;;;;;12.85;87.20;99432.75;5016897;28;8869;-79
2022/11/06 08:07:25;;;;;;;;;57.00;41.75;;;;;12.73;88.28;99418.06;5013813;28;8885;-79
2022/11/06 08:09:54;;;;;;;;;59.25;43.50;;;;;12.67;88.51;99424.25;5030656;28;8859;-80
2022/11/06 08:12:23;;;;;;;;;56.75;44.25;;;;;12.51;89.19;99432.25;5030487;28;8867;-79
2022/11/06 08:14:52;;;;;;;;;58.00;45.25;;;;;12.60;89.79;99427.81;5031082;28;8851;-79
2022/11/06 08:17:20;;;;;;;;;56.50;44.25;;;;;13.11;86.70;99431.59;5029628;28;8871;-78
2022/11/06 08:19:49;;;;;;;;;57.00;45.25;;;;;13.13;86.32;99421.97;5030066;28;8911;-80
2022/11/06 08:22:18;;;;;;;;;52.00;41.50;;;;;12.86;87.28;99430.13;5013695;28;8871;-77
2022/11/06 08:24:48;;;;;;;;;55.25;44.50;;;;;12.75;88.26;99423.28;5030294;28;8867;-80
2022/11/06 08:27:16;;;;;;;;;52.00;43.25;;;;;12.82;87.45;99430.19;5030715;28;8836;-79
2022/11/06 08:29:45;;;;;;;;;55.50;44.50;;;;;13.02;86.69;99430.84;5051177;28;8853;-80
2022/11/06 08:32:13;;;;;;;;;54.75;43.75;;;;;13.11;86.22;99428.97;5052580;28;8926;-77
2022/11/06 08:34:42;;;;;;;;;56.00;44.50;;;;;13.07;85.79;99436.00;5054997;28;8841;-77
2022/11/06 08:37:11;;;;;;;;;54.75;43.00;;;;;13.26;85.97;99436.63;5062318;28;8853;-79
2022/11/06 08:39:40;;;;;;;;;54.00;42.75;;;;;13.49;84.22;99433.72;5033423;28;8921;-78
2022/11/06 08:42:10;;;;;;;;;53.50;41.50;;;;;13.66;82.88;99438.72;5049862;28;8983;-77
2022/11/06 08:44:38;;;;;;;;;48.00;38.50;;;;;13.22;85.33;99437.56;5048592;28;8875;-78
2022/11/06 08:47:07;;;;;;;;;54.00;42.50;;;;;13.17;85.08;99434.13;5066453;28;8875;-77
2022/11/06 08:49:35;;;;;;;;;50.25;41.00;;;;;13.03;86.82;99436.91;5027950;28;8894;-79
2022/11/06 08:52:04;;;;;;;;;51.25;43.50;;;;;12.93;87.53;99440.53;5028568;28;8867;-78
2022/11/06 08:54:33;;;;;;;;;52.00;41.00;;;;;13.49;85.25;99435.47;5011520;28;8894;-77
2022/11/06 08:57:01;;;;;;;;;57.25;45.00;;;;;13.50;85.63;99435.47;5027329;28;8859;-79
2022/11/06 08:59:32;;;;;;;;;50.50;39.75;;;;;13.86;83.36;99440.19;5010551;28;8864;-79
2022/11/06 09:02:01;;;;;;;;;45.50;36.75;;;;;13.99;82.82;99439.09;4991491;28;8929;-79
2022/11/06 09:04:30;;;;;;;;;45.75;39.25;;;;;14.40;80.96;99440.13;5008736;28;8943;-78
2022/11/06 09:06:59;;;;;;;;;49.75;40.25;;;;;14.68;79.64;99439.66;5009078;28;8988;-80
2022/11/06 09:09:30;;;;;;;;;51.75;38.25;;;;;14.30;80.23;99449.06;4993581;28;8846;-78
2022/11/06 09:12:00;;;;;;;;;51.67;38.67;;;;;13.92;81.88;99443.56;5025673;28;8859;-80
2022/11/06 09:14:29;;;;;;;;;49.50;39.75;;;;;14.37;80.62;99448.06;5027908;28;8879;-81
2022/11/06 09:16:59;;;;;;;;;57.00;40.75;;;;;14.28;80.60;99449.09;5012964;28;8867;-79
2022/11/06 09:19:27;;;;;;;;;53.75;41.50;;;;;14.20;80.72;99449.22;5014382;28;8991;-78
2022/11/06 09:21:56;;;;;;;;;47.80;37.80;;;;;14.35;80.52;99453.34;5051431;28;9662;-79
2022/11/06 09:24:24;;;;;;;;;39.80;35.40;;;;;14.76;78.95;99449.13;5036558;28;8830;-79
2022/11/06 09:27:13;;;;;;;;;43.60;37.00;;;;;14.95;77.63;99444.38;5005576;28;8870;-80
2022/11/06 09:29:43;;;;;;;;;50.25;38.50;;;;;14.91;77.93;99457.59;5041657;28;8913;-79
2022/11/06 09:32:13;;;;;;;;;49.00;36.50;;;;;14.53;78.89;99451.28;5043506;28;8985;-80
2022/11/06 09:34:41;;;;;;;;;51.75;35.75;;;;;14.23;80.30;99456.16;5012727;28;8839;-80
2022/11/06 09:37:10;;;;;;;;;48.75;36.50;;;;;14.57;79.21;99456.50;5028682;28;8956;-78
2022/11/06 09:39:39;;;;;;;;;50.50;39.50;;;;;14.75;78.75;99459.66;5030260;28;8860;-81
2022/11/06 09:42:24;;;;;;;;;45.00;36.00;;;;;14.86;78.12;99457.69;5023616;28;8956;-81
2022/11/06 09:45:02;;;;;;;;;34.50;33.50;;;;;14.84;77.15;99458.59;5027750;28;8969;-79
2022/11/06 09:47:35;;;;;;;;;42.00;36.75;;;;;15.15;76.98;99457.09;5027981;28;8863;-80
2022/11/06 09:50:12;;;;;;;;;50.50;38.75;;;;;15.21;76.18;99453.47;5011544;28;8848;-79
2022/11/06 09:52:46;;;;;;;;;47.00;38.75;;;;;14.86;76.77;99448.94;5011987;28;8868;-79
2022/11/06 09:55:20;;;;;;;;;46.00;37.75;;;;;14.50;79.00;99453.94;5014152;28;8870;-80
2022/11/06 09:57:53;;;;;;;;;54.50;40.00;;;;;14.27;79.57;99455.22;5042540;28;8891;-80
2022/11/06 10:00:23;;;;;;;;;56.00;40.50;;;;;13.87;81.55;99458.47;5026976;28;8870;-77
2022/11/06 10:02:55;;;;;;;;;55.50;38.50;;;;;13.81;82.28;99448.09;5027266;28;8901;-79
2022/11/06 10:05:27;;;;;;;;;49.50;36.00;;;;;13.85;82.56;99452.41;5010573;28;8868;-81
2022/11/06 10:07:57;;;;;;;;;30.00;28.60;;;;;14.10;81.15;99450.28;5039025;28;9628;-81
2022/11/06 10:10:33;;;;;;;;;46.75;37.25;;;;;14.11;81.00;99445.88;5028526;28;8856;-80
2022/11/06 10:13:39;;;;;;;;;42.75;37.25;;;;;14.28;80.77;99446.47;5026996;28;8961;-80
2022/11/06 10:16:18;;;;;;;;;49.00;38.00;;;;;14.07;81.81;99442.44;4990604;28;8862;-78
2022/11/06 10:18:56;;;;;;;;;50.50;38.75;;;;;14.11;81.61;99448.50;4992084;28;8939;-82
2022/11/06 10:21:33;;;;;;;;;48.75;38.00;;;;;13.67;83.31;99453.56;5006447;28;8874;-77
2022/11/06 10:24:15;;;;;;;;;46.50;37.25;;;;;13.96;81.44;99454.88;4983210;28;8864;-79
2022/11/06 10:26:51;;;;;;;;;43.50;38.50;;;;;13.69;82.04;99446.53;5005251;28;8855;-81
2022/11/06 10:29:40;;;;;;;;;49.75;41.50;;;;;13.47;84.38;99445.97;5026807;28;8933;-80
2022/11/06 10:32:35;;;;;;;;;58.25;46.00;;;;;13.82;83.73;99453.31;5009724;28;8875;-78
2022/11/06 10:35:13;;;;;;;;;57.75;43.25;;;;;13.79;83.50;99450.75;4915846;28;8878;-81
2022/11/06 10:37:49;;;;;;;;;53.25;42.50;;;;;14.34;81.29;99445.50;4915905;28;8862;-80
2022/11/06 10:40:21;;;;;;;;;54.50;41.00;;;;;14.52;79.98;99445.16;4946601;28;9656;-80
2022/11/06 10:43:01;;;;;;;;;51.50;41.25;;;;;14.67;78.63;99449.31;4931835;28;8874;-79
2022/11/06 10:45:30;;;;;;;;;53.50;44.00;;;;;14.46;79.67;99439.16;4928173;29;9023;-80
2022/11/06 10:48:07;;;;;;;;;52.25;43.00;;;;;14.93;77.88;99440.03;4928800;29;8943;-81
2022/11/06 10:50:45;;;;;;;;;49.00;38.50;;;;;14.21;80.22;99440.47;4913134;29;8864;-81
2022/11/06 10:53:24;;;;;;;;;51.50;42.25;;;;;14.26;79.73;99440.38;4935410;28;8867;-81
2022/11/06 10:56:16;;;;;;;;;61.25;46.25;;;;;14.33;80.12;99442.00;4918909;28;8990;-79
2022/11/06 10:58:49;;;;;;;;;58.50;46.00;;;;;14.40;79.62;99438.38;4921421;29;8872;-78
2022/11/06 11:01:17;;;;;;;;;56.25;45.50;;;;;14.75;78.24;99443.91;4912195;29;9775;-81
2022/11/06 11:03:48;;;;;;;;;46.25;37.50;;;;;14.44;79.73;99433.94;4912322;29;8894;-79
2022/11/06 11:06:18;;;;;;;;;50.50;41.00;;;;;14.69;78.15;99437.00;4930967;29;9050;-80
2022/11/06 11:08:47;;;;;;;;;46.50;37.00;;;;;14.76;78.07;99435.13;4895572;29;8871;-79
2022/11/06 11:11:21;;;;;;;;;46.00;38.50;;;;;14.84;77.48;99433.22;4914782;28;8999;-80
2022/11/06 11:14:11;;;;;;;;;55.75;42.00;;;;;14.67;77.70;99438.81;4989903;28;8866;-81
2022/11/06 11:16:43;;;;;;;;;45.75;37.75;;;;;14.76;77.74;99438.63;5005812;28;8997;-79
2022/11/06 11:19:24;;;;;;;;;53.50;39.00;;;;;14.86;76.59;99427.91;4977039;28;8877;-79
2022/11/06 11:21:56;;;;;;;;;55.75;40.00;;;;;15.15;76.36;99430.81;5006906;28;8842;-81
2022/11/06 11:24:25;;;;;;;;;58.50;39.00;;;;;14.96;76.27;99434.75;4989208;28;8858;-79
2022/11/06 11:26:58;;;;;;;;;54.75;40.00;;;;;15.10;75.77;99432.69;5004711;28;9644;-79
2022/11/06 11:29:31;;;;;;;;;52.25;39.25;;;;;15.29;74.83;99433.19;4987153;28;8842;-80
2022/11/06 11:32:02;;;;;;;;;46.75;37.50;;;;;15.42;74.53;99433.75;4987980;28;8858;-79
2022/11/06 11:34:34;;;;;;;;;46.00;37.75;;;;;15.01;75.92;99425.88;4988383;28;8889;-78
2022/11/06 11:37:07;;;;;;;;;44.50;36.50;;;;;15.21;75.52;99428.06;5040952;28;8872;-79
2022/11/06 11:39:38;;;;;;;;;39.50;35.75;;;;;15.53;74.74;99428.25;5050421;28;8841;-83
2022/11/06 11:42:21;;;;;;;;;44.25;36.00;;;;;15.75;73.50;99433.94;5050457;28;8849;-81
2022/11/06 11:45:16;;;;;;;;;49.00;39.00;;;;;15.72;72.77;99428.69;5033045;28;8872;-80
2022/11/06 11:47:46;;;;;;;;;45.50;35.75;;;;;15.66;73.13;99428.84;5044254;28;9661;-79
2022/11/06 11:50:25;;;;;;;;;49.50;38.50;;;;;15.58;73.53;99427.25;5030560;28;8863;-77
2022/11/06 11:52:59;;;;;;;;;46.25;38.75;;;;;15.62;73.78;99428.06;5052663;28;8849;-80
2022/11/06 11:55:38;;;;;;;;;47.00;39.25;;;;;15.32;74.27;99434.88;5001358;28;8872;-81
2022/11/06 11:58:19;;;;;;;;;55.25;40.25;;;;;14.79;76.72;99425.44;4999105;28;8864;-78
2022/11/06 12:00:54;;;;;;;;;52.25;39.75;;;;;14.75;76.76;99426.38;5011285;28;1177510;-80